• Join FlightAware (Why Join?)
  • Login
  • US Flag 
08:32AM EDT


 

Airport Tracker/Info


-or-


 

Live Flight TrackerFlight Track Log ✈ DAL5880 ✈ 28-Sep-2013 ✈ KLGA - KBOS

Flight Track Log - Related Links

Times and Time Zones

All times are in EDT time to prevent confusion due to time zone crossing. See the DAL5880 flight status page for this flight to view local times or setup timezone preferences in your user account.

Time Position Orientation Groundspeed Altitude Reporting Facility
EDT Latitude Longitude Course Direction KTS MPH feet Rate Location/Type
12:53PM 40.7333 -73.8167 45° Northeast 192 221 2,900  Level New York TRACON
12:54PM 40.7833 -73.7833 27° Northeast 230 265 5,300 2,700 Climbing New York TRACON
12:55PM 40.9399 -73.5907 44° Northeast  Level Estimated
12:56PM 40.9939 -73.4965 48° Northeast  Level Estimated
12:56PM 40.8928 -73.6975 31° Northeast 279 321 10,200  Level Boston Center
12:57PM 41.0479 -73.4021 48° Northeast  Level Estimated
12:57PM 40.9583 -73.6247 40° Northeast 286 329 12,400  Level Boston Center
12:58PM 41.1018 -73.3075 45° Northeast  Level Estimated
12:58PM 41.0217 -73.5514 41° Northeast 310 357 14,200  Level Boston Center
12:59PM 41.1017 -73.4619 40° Northeast 331 381 17,000 2,160 Climbing Boston Center
01:00PM 41.1689 -73.3831 41° Northeast 344 396 18,600 960 Climbing Boston Center
01:01PM 41.2408 -73.2683 50° Northeast 350 403 19,000 180 Climbing Boston Center
01:02PM 41.2728 -73.1333 72° East 357 411 19,000  Level Boston Center
01:03PM 41.2986 -73.0119 74° East 379 436 19,000  Level Boston Center
01:04PM 41.3325 -72.8603 73° East 386 444 19,000  Level Boston Center
01:05PM 41.3600 -72.7361 74° East 381 438 19,000  Level Boston Center
01:06PM 41.3958 -72.5867 72° East 381 438 19,000  Level Boston Center
01:07PM 41.4272 -72.4483 73° East 381 438 19,000 -240 Level Boston Center
01:08PM 41.4561 -72.3128 74° East 376 433 18,600 -600 Descending Boston Center
01:09PM 41.4894 -72.1906 70° East 376 433 17,900 -660 Descending Boston Center
01:10PM 41.5350 -72.0658 64° Northeast 367 422 17,300 -780 Descending Boston Center
01:11PM 41.5617 -71.9794 68° East 329 379 16,400 -1,200 Descending Boston Center
01:12PM 41.6006 -71.8517 68° East 306 352 14,900 -1,200 Descending Boston Center
01:13PM 41.6294 -71.7597 67° East 299 344 14,000 -1,020 Descending Boston Center
01:14PM 41.6619 -71.6453 69° East 293 337 13,000 -900 Descending Boston Center
01:15PM 41.6883 -71.5506 70° East 293 337 12,100 -960 Descending Boston Center
01:16PM 41.7247 -71.4331 67° East 288 331 11,000 -540 Descending Boston Center
01:17PM 41.7908 -71.3569 41° Northeast 277 319 11,100 -120 Climbing Boston Center
01:18PM 41.8594 -71.3336 14° North 283 326 10,800 -1,080 Descending Boston Center
01:19PM 41.9425 -71.3069 13° North 283 326 9,000 -1,860 Descending Boston Center
01:20PM 42.0089 -71.2889 11° North 272 313 7,200 -1,860 Descending Boston Center
01:21PM 42.0858 -71.2625 14° North 259 298 5,400 -1,560 Descending Boston Center
01:22PM 42.1417 -71.2333 21° North 239 275 4,100 -720 Descending Boston Center
01:23PM 42.2039 -71.1844 30° Northeast 239 275 4,000 -360 Descending Boston Center
01:24PM 42.2431 -71.1444 37° Northeast 212 244 3,400 -1,200 Descending Boston Center
01:25PM 42.2797 -71.0931 46° Northeast 184 212 1,700 -1,080 Descending Boston Center
01:26PM 42.3025 -71.0589 48° Northeast 162 186 1,100 -540 Descending Boston Center